Terminal Aerodrome Forecast
Issued by NWS Greer, SC

Home | Current Version | Previous Version | Text Only | Print | Product List | Glossary On
Versions: 1 2 3 4 5 6 7 8 9 10 11 12 13 14 15 16 17 18 19 20 21 22 23 24
000
FTUS42 KGSP 200538
TAFGSP
TAF
KGSP 200538Z 2006/2106 06003KT 1/2SM FG OVC002
      TEMPO 2008/2012 00000KT 1/4SM FG VV001
     FM201600 18004KT P6SM OVC004
     FM210300 12003KT 2SM BR BKN002 PROB30 2103/2106 3/4SM -SHRA BR
      OVC001=

USA.gov is the U.S. government's official web portal to all federal, state and local government web resources and services.